Time;durP1;ratioP1;P1;durP2;ratioP2;P2;SDS_P1;SDS_P2;PMS_P1;PMS_P2;Temp;Humidity;BMP_temperature;BMP_pressure;BME280_temperature;BME280_humidity;BME280_pressure;Samples;Min_cycle;Max_cycle;Signal;HPM_P1;HPM_P2
2023/09/27 00:00:18;;;;;;;9.80;5.57;;;17.40;99.90;;;;;;5095690;28;20221;-72
2023/09/27 00:02:44;;;;;;;8.23;5.67;;;17.30;99.90;;;;;;5095640;28;20167;-72
2023/09/27 00:05:11;;;;;;;8.80;6.10;;;17.30;99.90;;;;;;5095133;28;20208;-72
2023/09/27 00:07:38;;;;;;;9.10;6.07;;;17.30;99.90;;;;;;5095538;28;20639;-72
2023/09/27 00:10:05;;;;;;;6.83;5.67;;;17.20;99.90;;;;;;5095563;28;20629;-71
2023/09/27 00:12:32;;;;;;;8.10;5.90;;;17.20;99.90;;;;;;5095545;28;20241;-72
2023/09/27 00:14:58;;;;;;;8.23;5.63;;;17.20;99.90;;;;;;5095465;28;20233;-72
2023/09/27 00:17:24;;;;;;;6.17;5.20;;;17.30;99.90;;;;;;5094880;28;20192;-72
2023/09/27 00:19:50;;;;;;;8.23;5.67;;;17.30;99.90;;;;;;5095346;28;20176;-71
2023/09/27 00:22:15;;;;;;;5.90;5.23;;;17.30;99.90;;;;;;5095125;28;20212;-71
2023/09/27 00:24:41;;;;;;;8.13;4.90;;;17.30;99.90;;;;;;5093810;28;20273;-71
2023/09/27 00:27:08;;;;;;;8.02;5.60;;;17.20;99.90;;;;;;5095250;28;20650;-72
2023/09/27 00:29:34;;;;;;;10.30;5.50;;;17.20;99.90;;;;;;5095325;28;20172;-71
2023/09/27 00:32:00;;;;;;;11.43;5.57;;;17.20;99.90;;;;;;5094694;28;20171;-72
2023/09/27 00:34:25;;;;;;;9.93;5.20;;;17.20;99.90;;;;;;5095054;28;20183;-71
2023/09/27 00:36:51;;;;;;;6.95;5.53;;;17.20;99.90;;;;;;5094925;28;20175;-72
2023/09/27 00:39:17;;;;;;;5.95;5.25;;;17.20;99.90;;;;;;5095109;28;20168;-72
2023/09/27 00:41:42;;;;;;;10.67;5.43;;;17.10;99.90;;;;;;5095057;28;20269;-71
2023/09/27 00:44:08;;;;;;;9.40;5.30;;;17.00;99.90;;;;;;5095039;28;20172;-71
2023/09/27 00:46:34;;;;;;;6.47;5.40;;;17.00;99.90;;;;;;5094471;28;20637;-71
2023/09/27 00:49:00;;;;;;;5.87;5.30;;;17.10;99.90;;;;;;5094460;28;20528;-71
2023/09/27 00:51:26;;;;;;;9.07;5.40;;;17.10;99.90;;;;;;5094823;28;20627;-72
2023/09/27 00:53:54;;;;;;;7.23;5.70;;;17.10;99.90;;;;;;5094721;28;20172;-71
2023/09/27 00:56:20;;;;;;;7.43;5.17;;;17.20;99.90;;;;;;5094546;28;20163;-71
2023/09/27 00:58:47;;;;;;;6.80;5.25;;;17.20;99.90;;;;;;5094633;28;20172;-72
2023/09/27 01:01:13;;;;;;;11.60;6.40;;;17.20;99.90;;;;;;5094328;28;20168;-72
2023/09/27 01:03:39;;;;;;;10.77;6.77;;;17.10;99.90;;;;;;5094569;28;20172;-71
2023/09/27 01:06:06;;;;;;;9.55;6.35;;;17.10;99.90;;;;;;5094545;28;20211;-71
2023/09/27 01:08:32;;;;;;;9.67;6.50;;;17.00;99.90;;;;;;5094515;28;20186;-72
2023/09/27 01:10:58;;;;;;;8.53;6.43;;;17.00;99.90;;;;;;5094464;28;20623;-71
2023/09/27 01:13:23;;;;;;;10.53;6.33;;;16.90;99.90;;;;;;5093130;28;20504;-70
2023/09/27 01:15:49;;;;;;;11.37;6.63;;;16.90;99.90;;;;;;5093991;28;20171;-71
2023/09/27 01:18:15;;;;;;;7.63;6.67;;;16.80;99.90;;;;;;5093030;28;20192;-71
2023/09/27 01:20:41;;;;;;;9.83;7.00;;;16.70;99.90;;;;;;5093966;28;20698;-70
2023/09/27 01:23:07;;;;;;;11.43;6.90;;;16.50;99.90;;;;;;5094476;28;20176;-72
2023/09/27 01:25:36;;;;;;;8.60;6.70;;;16.40;99.90;;;;;;5094080;28;20211;-71
2023/09/27 01:28:04;;;;;;;8.93;6.97;;;16.40;99.90;;;;;;5094087;28;20172;-71
2023/09/27 01:30:33;;;;;;;11.23;6.87;;;16.40;99.90;;;;;;5093799;28;20168;-71
2023/09/27 01:33:06;;;;;;;8.93;6.20;;;16.50;99.90;;;;;;5094142;28;20168;-70
2023/09/27 01:35:39;;;;;;;7.50;6.80;;;16.50;99.90;;;;;;5094086;28;20164;-72
2023/09/27 01:38:06;;;;;;;9.97;7.67;;;16.50;99.90;;;;;;5093914;28;20171;-72
2023/09/27 01:40:32;;;;;;;10.67;8.10;;;16.50;99.90;;;;;;5093815;28;20180;-72
2023/09/27 01:42:58;;;;;;;14.37;9.17;;;16.40;99.90;;;;;;5093574;28;20164;-72
2023/09/27 01:45:24;;;;;;;15.83;9.60;;;16.40;99.90;;;;;;5093422;28;20257;-72
2023/09/27 01:47:50;;;;;;;11.30;8.80;;;16.40;99.90;;;;;;5093677;28;20164;-71
2023/09/27 01:50:19;;;;;;;10.00;7.30;;;16.40;99.90;;;;;;5093611;28;20245;-71
2023/09/27 01:52:47;;;;;;;8.70;6.40;;;16.30;99.90;;;;;;5092469;28;20171;-70
2023/09/27 01:55:13;;;;;;;10.50;6.33;;;16.30;99.90;;;;;;5093667;28;20225;-71
2023/09/27 01:57:39;;;;;;;9.13;7.00;;;16.30;99.90;;;;;;5093516;28;20168;-71
2023/09/27 02:00:14;;;;;;;11.33;6.80;;;16.30;99.90;;;;;;5093220;28;20172;-71
2023/09/27 02:02:44;;;;;;;8.60;6.70;;;16.30;99.90;;;;;;5093430;28;20229;-71
2023/09/27 02:05:09;;;;;;;11.13;7.30;;;16.20;99.90;;;;;;5093174;28;20207;-72
2023/09/27 02:07:39;;;;;;;8.00;6.67;;;16.10;99.90;;;;;;5093604;28;20190;-72
2023/09/27 02:10:06;;;;;;;8.40;6.97;;;16.10;99.90;;;;;;5093460;28;20168;-71
2023/09/27 02:12:32;;;;;;;7.73;6.40;;;16.00;99.90;;;;;;5093240;28;20175;-71
2023/09/27 02:14:58;;;;;;;10.33;7.63;;;16.00;99.90;;;;;;5093023;28;20163;-71
2023/09/27 02:17:23;;;;;;;10.23;6.87;;;16.00;99.90;;;;;;5093284;28;20192;-71
2023/09/27 02:19:49;;;;;;;12.00;7.23;;;16.10;99.90;;;;;;5093423;28;20163;-71
2023/09/27 02:22:15;;;;;;;8.03;7.20;;;16.20;99.90;;;;;;5093063;28;20302;-71
2023/09/27 02:24:41;;;;;;;10.77;7.67;;;16.20;99.90;;;;;;5093146;28;20254;-71
2023/09/27 02:27:07;;;;;;;12.53;7.60;;;16.20;99.90;;;;;;5093208;28;20175;-71
2023/09/27 02:29:32;;;;;;;10.30;8.13;;;16.30;99.90;;;;;;5092985;28;20168;-71
2023/09/27 02:31:58;;;;;;;10.07;8.43;;;16.10;99.90;;;;;;5093156;28;20558;-71
2023/09/27 02:34:25;;;;;;;11.43;7.37;;;16.00;99.90;;;;;;5093104;28;20174;-71
2023/09/27 02:36:50;;;;;;;10.40;7.70;;;16.00;99.90;;;;;;5093089;28;20175;-71
2023/09/27 02:39:16;;;;;;;9.97;7.77;;;16.10;99.90;;;;;;5092948;28;20171;-71
2023/09/27 02:41:42;;;;;;;10.03;7.07;;;16.20;99.90;;;;;;5093135;28;20179;-71
2023/09/27 02:44:07;;;;;;;9.90;7.27;;;16.20;99.90;;;;;;5092643;28;20638;-71
2023/09/27 02:46:33;;;;;;;8.57;7.27;;;16.20;99.90;;;;;;5092948;28;20249;-71
2023/09/27 02:48:58;;;;;;;10.37;7.07;;;16.20;99.90;;;;;;5092827;28;20576;-71
2023/09/27 02:51:24;;;;;;;8.57;7.57;;;16.20;99.90;;;;;;5092836;28;20172;-72
2023/09/27 02:53:49;;;;;;;11.27;7.53;;;16.20;99.90;;;;;;5092838;28;20566;-71
2023/09/27 02:56:15;;;;;;;8.63;6.93;;;16.10;99.90;;;;;;5091491;28;20182;-72
2023/09/27 02:58:41;;;;;;;10.60;6.93;;;16.10;99.90;;;;;;5092453;28;20243;-71
2023/09/27 03:01:07;;;;;;;11.93;8.10;;;16.10;99.90;;;;;;5092989;28;20168;-71
2023/09/27 03:03:34;;;;;;;15.30;9.13;;;16.00;99.90;;;;;;5092696;28;20168;-71
2023/09/27 03:05:59;;;;;;;9.07;7.43;;;15.70;99.90;;;;;;5092646;28;20218;-71
2023/09/27 03:08:25;;;;;;;10.60;7.20;;;15.70;99.90;;;;;;5092631;28;20172;-71
2023/09/27 03:10:51;;;;;;;12.07;8.10;;;15.70;99.90;;;;;;5093104;28;20164;-71
2023/09/27 03:13:17;;;;;;;10.40;7.63;;;15.70;99.90;;;;;;5092258;28;20171;-71
2023/09/27 03:15:44;;;;;;;10.10;8.33;;;15.80;99.90;;;;;;5092217;28;20662;-71
2023/09/27 03:18:10;;;;;;;12.90;8.40;;;15.80;99.90;;;;;;5096117;28;20196;-71
2023/09/27 03:20:36;;;;;;;12.17;7.87;;;15.80;99.90;;;;;;5094873;28;20216;-71
2023/09/27 03:23:02;;;;;;;11.23;7.20;;;15.80;99.90;;;;;;5096273;28;20188;-72
2023/09/27 03:25:28;;;;;;;9.07;6.90;;;15.80;99.90;;;;;;5094875;28;20215;-71
2023/09/27 03:27:54;;;;;;;10.53;7.10;;;15.80;99.90;;;;;;5095857;28;20209;-71
2023/09/27 03:30:20;;;;;;;9.10;7.20;;;15.80;99.90;;;;;;5096362;28;20569;-71
2023/09/27 03:32:46;;;;;;;10.93;7.50;;;15.80;99.90;;;;;;5096037;28;20172;-71
2023/09/27 03:35:12;;;;;;;10.87;7.23;;;15.80;99.90;;;;;;5095935;28;20183;-71
2023/09/27 03:37:39;;;;;;;11.40;7.57;;;15.70;99.90;;;;;;5095804;28;20168;-72
2023/09/27 03:40:15;;;;;;;12.17;7.73;;;15.80;99.90;;;;;;5095880;28;20164;-72
2023/09/27 03:42:45;;;;;;;12.20;8.27;;;15.80;99.90;;;;;;5095579;28;20170;-72
2023/09/27 03:45:11;;;;;;;14.63;8.23;;;15.80;99.90;;;;;;5095670;28;20191;-72
2023/09/27 03:47:37;;;;;;;10.67;7.37;;;15.70;99.90;;;;;;5095577;28;20224;-71
2023/09/27 03:50:03;;;;;;;9.93;7.83;;;15.70;99.90;;;;;;5095524;28;20168;-71
2023/09/27 03:52:29;;;;;;;10.43;7.80;;;15.80;99.90;;;;;;5095626;28;20179;-72
2023/09/27 03:54:55;;;;;;;10.33;7.70;;;15.70;99.90;;;;;;5094520;28;20508;-70
2023/09/27 03:57:20;;;;;;;8.80;7.70;;;15.70;99.90;;;;;;5095684;28;20167;-72
2023/09/27 03:59:46;;;;;;;9.10;7.57;;;15.80;99.90;;;;;;5095626;28;20182;-72
2023/09/27 04:02:11;;;;;;;7.83;7.03;;;15.80;99.90;;;;;;5095681;28;20619;-71
2023/09/27 04:04:37;;;;;;;15.10;7.23;;;15.90;99.90;;;;;;5095021;28;20176;-72
2023/09/27 04:07:03;;;;;;;12.47;7.40;;;15.90;99.90;;;;;;5095447;28;20632;-73
2023/09/27 04:09:28;;;;;;;11.57;7.47;;;15.90;99.90;;;;;;5094995;28;20180;-72
2023/09/27 04:11:55;;;;;;;11.13;7.63;;;15.90;99.90;;;;;;5095264;28;20616;-71
2023/09/27 04:14:21;;;;;;;8.93;7.23;;;16.00;99.90;;;;;;5095190;28;20259;-71
2023/09/27 04:16:46;;;;;;;9.00;7.90;;;16.00;99.90;;;;;;5094809;28;20586;-71
2023/09/27 04:19:13;;;;;;;9.37;7.87;;;16.10;99.90;;;;;;5095043;28;20167;-71
2023/09/27 04:21:38;;;;;;;11.03;7.43;;;16.00;99.90;;;;;;5094738;28;20318;-72
2023/09/27 04:24:04;;;;;;;12.77;8.37;;;16.00;99.90;;;;;;5094537;28;20250;-71
2023/09/27 04:26:30;;;;;;;9.20;8.10;;;15.90;99.90;;;;;;5094918;28;20269;-71
2023/09/27 04:28:56;;;;;;;11.77;8.33;;;15.80;99.90;;;;;;5094430;28;20168;-72
2023/09/27 04:31:22;;;;;;;11.77;7.80;;;15.70;99.90;;;;;;5094684;28;20176;-71
2023/09/27 04:33:48;;;;;;;16.43;8.43;;;15.70;99.90;;;;;;5094438;28;20160;-72
2023/09/27 04:36:17;;;;;;;11.90;8.60;;;15.70;99.90;;;;;;5094660;28;20180;-71
2023/09/27 04:38:46;;;;;;;16.97;8.60;;;15.70;99.90;;;;;;5094432;28;20232;-71
2023/09/27 04:41:14;;;;;;;17.90;8.13;;;15.70;99.90;;;;;;5094415;28;20183;-71
2023/09/27 04:43:41;;;;;;;11.53;8.37;;;15.70;99.90;;;;;;5094913;28;20164;-70
2023/09/27 04:46:07;;;;;;;10.77;8.50;;;15.80;99.90;;;;;;5093218;28;20214;-70
2023/09/27 04:48:33;;;;;;;12.37;8.43;;;15.80;99.90;;;;;;5093879;28;20168;-71
2023/09/27 04:50:59;;;;;;;16.40;8.93;;;15.80;99.90;;;;;;5094573;28;20225;-71
2023/09/27 04:53:25;;;;;;;14.03;9.03;;;15.80;99.90;;;;;;5093598;28;20619;-71
2023/09/27 04:55:52;;;;;;;15.80;8.90;;;15.70;99.90;;;;;;5093941;28;20219;-71
2023/09/27 04:58:18;;;;;;;15.87;9.03;;;15.70;99.90;;;;;;5094229;28;20176;-71
2023/09/27 05:00:43;;;;;;;11.97;8.53;;;15.70;99.90;;;;;;5093893;28;20237;-73
2023/09/27 05:03:09;;;;;;;13.07;8.50;;;15.60;99.90;;;;;;5094136;28;20168;-71
2023/09/27 05:05:34;;;;;;;9.93;8.33;;;15.40;99.90;;;;;;5093881;28;20539;-71
2023/09/27 05:08:00;;;;;;;12.63;8.53;;;15.30;99.90;;;;;;5093376;28;20263;-71
2023/09/27 05:10:26;;;;;;;10.70;8.53;;;15.30;99.90;;;;;;5093721;28;20179;-71
2023/09/27 05:12:52;;;;;;;15.33;8.33;;;15.20;99.90;;;;;;5094113;28;20226;-71
2023/09/27 05:15:18;;;;;;;19.73;9.33;;;15.20;99.90;;;;;;5093609;28;20636;-71
2023/09/27 05:17:43;;;;;;;13.97;9.33;;;15.30;99.90;;;;;;5093277;28;20220;-71
2023/09/27 05:20:13;;;;;;;14.23;9.50;;;15.30;99.90;;;;;;5093442;28;20214;-71
2023/09/27 05:22:38;;;;;;;13.63;9.10;;;15.20;99.90;;;;;;5093405;28;20563;-71
2023/09/27 05:25:06;;;;;;;18.30;9.20;;;15.20;99.90;;;;;;5093124;28;20215;-72
2023/09/27 05:27:32;;;;;;;15.37;8.97;;;15.10;99.90;;;;;;5093648;28;20188;-72
2023/09/27 05:29:57;;;;;;;28.10;16.03;;;15.10;99.90;;;;;;5093525;28;20259;-72
2023/09/27 05:32:23;;;;;;;16.40;9.27;;;15.10;99.90;;;;;;5093173;28;20171;-72
2023/09/27 05:34:50;;;;;;;17.07;9.60;;;15.20;99.90;;;;;;5093067;28;20544;-71
2023/09/27 05:37:16;;;;;;;14.97;9.63;;;15.20;99.90;;;;;;5092543;28;20666;-72
2023/09/27 05:39:42;;;;;;;13.57;8.57;;;15.20;99.90;;;;;;5092508;28;20172;-70
2023/09/27 05:42:07;;;;;;;16.23;8.87;;;15.30;99.90;;;;;;5092514;28;20172;-71
2023/09/27 05:44:33;;;;;;;19.40;9.70;;;15.30;99.90;;;;;;5092708;28;20570;-71
2023/09/27 05:46:59;;;;;;;17.97;9.73;;;15.30;99.90;;;;;;5093380;28;20199;-72
2023/09/27 05:49:25;;;;;;;14.53;9.73;;;15.30;99.90;;;;;;5093015;28;20168;-73
2023/09/27 05:51:52;;;;;;;15.97;8.90;;;15.30;99.90;;;;;;5092083;28;20214;-71
2023/09/27 05:54:19;;;;;;;18.63;8.77;;;15.40;99.90;;;;;;5092682;28;20182;-72
2023/09/27 05:56:50;;;;;;;21.57;9.30;;;15.40;99.90;;;;;;5092676;28;20168;-72
2023/09/27 05:59:16;;;;;;;17.47;8.60;;;15.40;99.90;;;;;;5092116;28;20244;-72
2023/09/27 06:01:41;;;;;;;18.90;8.93;;;15.50;99.90;;;;;;5092822;28;20168;-72
2023/09/27 06:04:07;;;;;;;12.13;8.60;;;15.50;99.90;;;;;;5092229;28;20263;-72
2023/09/27 06:06:34;;;;;;;13.43;8.27;;;15.50;99.90;;;;;;5091853;28;20689;-71
2023/09/27 06:08:59;;;;;;;21.17;8.60;;;15.50;99.90;;;;;;5092024;28;20164;-73
2023/09/27 06:11:25;;;;;;;14.57;8.90;;;15.60;99.90;;;;;;5092450;28;20175;-73
2023/09/27 06:13:51;;;;;;;16.70;8.10;;;15.80;99.90;;;;;;5090852;28;20179;-72
2023/09/27 06:16:17;;;;;;;16.00;8.10;;;15.80;99.90;;;;;;5092619;28;20180;-72
2023/09/27 06:18:43;;;;;;;13.93;7.33;;;15.90;99.90;;;;;;5091977;28;20195;-73
2023/09/27 06:21:09;;;;;;;13.53;7.47;;;16.00;99.90;;;;;;5091835;28;20300;-74
2023/09/27 06:23:37;;;;;;;23.47;8.07;;;16.10;99.90;;;;;;5092157;28;20163;-71
2023/09/27 06:26:03;;;;;;;16.03;8.03;;;16.10;99.90;;;;;;5091764;28;20212;-72
2023/09/27 06:28:29;;;;;;;20.47;8.57;;;16.30;99.90;;;;;;5092437;28;20657;-72
2023/09/27 06:30:54;;;;;;;16.53;8.80;;;16.10;99.90;;;;;;5092107;28;20164;-72
2023/09/27 06:33:20;;;;;;;12.73;8.57;;;16.10;99.90;;;;;;5092201;28;20168;-72
2023/09/27 06:35:45;;;;;;;14.43;7.97;;;16.20;99.90;;;;;;5091612;28;20572;-72
2023/09/27 06:38:11;;;;;;;10.67;8.50;;;16.40;99.90;;;;;;5092001;28;20279;-72
2023/09/27 06:40:36;;;;;;;16.03;8.70;;;16.50;99.90;;;;;;5091742;28;20176;-72
2023/09/27 06:43:04;;;;;;;15.07;8.87;;;16.60;99.90;;;;;;5091962;28;20595;-72
2023/09/27 06:45:30;;;;;;;14.53;8.70;;;16.70;99.90;;;;;;5091870;28;20210;-71
2023/09/27 06:47:56;;;;;;;16.10;9.10;;;16.80;99.90;;;;;;5092560;28;20262;-72
2023/09/27 06:50:22;;;;;;;18.13;9.43;;;16.90;99.90;;;;;;5092340;28;20171;-73
2023/09/27 06:52:48;;;;;;;22.35;10.65;;;17.20;99.90;;;;;;5095993;28;20164;-72
2023/09/27 06:55:16;;;;;;;9.82;7.72;;;17.40;99.90;;;;;;5095501;28;20171;-73
2023/09/27 06:57:45;;;;;;;14.30;7.43;;;17.60;99.90;;;;;;5095881;28;20226;-73
2023/09/27 07:00:24;;;;;;;16.75;8.90;;;17.80;99.90;;;;;;5096163;28;20172;-72
2023/09/27 07:02:51;;;;;;;15.88;7.85;;;19.20;99.90;;;;;;5096046;28;20179;-75
2023/09/27 07:05:20;;;;;;;16.85;8.55;;;20.80;99.90;;;;;;5094184;28;20199;-75
2023/09/27 07:07:47;;;;;;;13.98;7.72;;;22.50;99.90;;;;;;5095934;28;20179;-74
2023/09/27 07:10:12;;;;;;;19.13;8.25;;;24.00;1.00;;;;;;5095811;28;20489;-76
2023/09/27 07:12:38;;;;;;;18.08;7.88;;;25.10;1.00;;;;;;5095818;28;20635;-75
2023/09/27 07:15:09;;;;;;;19.83;8.35;;;25.90;1.00;;;;;;5095808;28;20592;-75
2023/09/27 07:17:35;;;;;;;18.58;8.18;;;26.60;1.00;;;;;;5094279;28;20192;-76
2023/09/27 07:20:07;;;;;;;18.13;7.70;;;27.10;1.00;;;;;;5095398;28;20175;-75
2023/09/27 07:22:32;;;;;;;16.15;7.65;;;27.50;1.00;;;;;;5095626;28;20631;-76
2023/09/27 07:24:58;;;;;;;20.40;7.97;;;27.80;1.00;;;;;;5096024;28;20210;-76
2023/09/27 07:27:24;;;;;;;14.15;7.80;;;27.60;1.00;;;;;;5095625;28;20494;-74
2023/09/27 07:29:51;;;;;;;23.80;8.15;;;27.40;92.30;;;;;;5095783;28;20569;-74
2023/09/27 07:32:16;;;;;;;13.20;7.60;;;27.20;1.00;;;;;;5095376;28;20284;-74
2023/09/27 07:34:42;;;;;;;16.05;8.32;;;26.20;99.90;;;;;;5095315;28;20160;-75
2023/09/27 07:37:08;;;;;;;19.75;8.25;;;26.70;1.00;;;;;;5095215;28;20255;-74
2023/09/27 07:39:34;;;;;;;19.38;8.50;;;26.90;99.90;;;;;;5095532;28;20295;-74
2023/09/27 07:41:59;;;;;;;17.90;9.15;;;27.40;1.00;;;;;;5095198;28;20638;-75
2023/09/27 07:44:27;;;;;;;23.25;8.68;;;28.00;99.90;;;;;;5095533;28;20174;-75
2023/09/27 07:46:53;;;;;;;23.02;8.38;;;29.20;1.00;;;;;;5095385;28;20318;-74
2023/09/27 07:49:19;;;;;;;14.45;8.23;;;29.70;99.90;;;;;;5095307;28;20663;-73
2023/09/27 07:51:44;;;;;;;16.85;7.72;;;30.70;1.00;;;;;;5095103;28;20236;-75
2023/09/27 07:54:12;;;;;;;13.15;8.27;;;30.50;1.00;;;;;;5094999;28;20192;-75
2023/09/27 07:56:39;;;;;;;19.08;8.30;;;31.40;1.00;;;;;;5095082;28;20635;-75
2023/09/27 07:59:06;;;;;;;22.92;9.10;;;30.90;1.00;;;;;;5094938;28;20168;-75
2023/09/27 08:01:33;;;;;;;18.40;8.90;;;31.70;1.00;;;;;;5094983;28;20510;-75
2023/09/27 08:04:06;;;;;;;16.40;8.48;;;31.20;1.00;;;;;;5094995;28;20183;-71
2023/09/27 08:06:33;;;;;;;18.52;8.75;;;31.50;1.00;;;;;;5094047;28;20203;-67
2023/09/27 08:09:00;;;;;;;10.95;6.82;;;31.70;1.00;;;;;;5094293;28;20175;-75
2023/09/27 08:11:26;;;;;;;10.45;6.55;;;30.70;1.00;;;;;;5095237;28;20182;-75
2023/09/27 08:13:53;;;;;;;10.07;5.90;;;30.40;1.00;;;;;;5095227;28;20163;-76
2023/09/27 08:16:19;;;;;;;10.77;6.05;;;30.50;1.00;;;;;;5094964;28;20168;-76
2023/09/27 08:18:45;;;;;;;7.68;5.78;;;29.60;1.00;;;;;;5094701;28;20681;-76
2023/09/27 08:21:10;;;;;;;12.18;5.60;;;28.20;99.90;;;;;;5094462;28;20564;-75
2023/09/27 08:23:36;;;;;;;7.78;5.70;;;28.60;1.00;;;;;;5095180;28;20221;-75
2023/09/27 08:26:02;;;;;;;8.85;5.90;;;28.70;99.90;;;;;;5094790;28;20279;-75
2023/09/27 08:28:31;;;;;;;7.57;5.50;;;28.80;99.90;;;;;;5095039;28;20203;-75
2023/09/27 08:31:00;;;;;;;12.25;5.82;;;28.70;99.90;;;;;;5094575;28;20179;-75
2023/09/27 08:33:27;;;;;;;6.75;5.28;;;27.60;99.90;;;;;;5094422;28;20168;-75
2023/09/27 08:35:53;;;;;;;5.90;5.32;;;26.10;1.00;;;;;;5094569;28;20178;-74
2023/09/27 08:38:19;;;;;;;9.05;5.40;;;25.30;1.00;;;;;;5094617;28;20164;-76
2023/09/27 08:40:47;;;;;;;5.10;4.70;;;25.50;1.00;;;;;;5094582;28;20172;-76
2023/09/27 08:43:14;;;;;;;9.40;4.97;;;26.00;99.90;;;;;;5094507;28;20210;-76
2023/09/27 08:45:41;;;;;;;12.07;5.38;;;25.60;1.00;;;;;;5093883;28;20294;-74
2023/09/27 08:48:11;;;;;;;5.45;4.80;;;25.20;99.90;;;;;;5094022;28;20225;-73
2023/09/27 08:50:37;;;;;;;7.57;4.88;;;24.70;1.00;;;;;;5094560;28;20164;-72
2023/09/27 08:53:03;;;;;;;7.85;5.15;;;24.50;1.00;;;;;;5094228;28;20271;-73
2023/09/27 08:55:29;;;;;;;5.35;4.85;;;24.30;1.00;;;;;;5094163;28;20226;-73
2023/09/27 08:57:56;;;;;;;8.05;4.88;;;24.80;1.00;;;;;;5093949;28;20168;-72
2023/09/27 09:00:26;;;;;;;7.68;4.95;;;24.40;1.00;;;;;;5093571;28;20172;-74
2023/09/27 09:02:57;;;;;;;6.15;4.60;;;24.00;1.00;;;;;;5094158;28;20168;-73
2023/09/27 09:05:24;;;;;;;7.75;4.35;;;23.70;1.00;;;;;;5094018;28;20188;-74
2023/09/27 09:07:53;;;;;;;4.72;4.28;;;23.60;1.00;;;;;;5094266;28;20543;-74
2023/09/27 09:10:19;;;;;;;7.18;4.15;;;23.70;1.00;;;;;;5093546;28;20167;-74
2023/09/27 09:12:47;;;;;;;5.13;4.15;;;24.20;1.00;;;;;;5093958;28;20213;-74
2023/09/27 09:15:40;;;;;;;5.70;4.18;;;24.70;1.00;;;;;;5092594;28;20192;-74
2023/09/27 09:18:31;;;;;;;6.90;4.70;;;24.10;1.00;;;;;;5093750;28;20180;-74
2023/09/27 09:21:08;;;;;;;8.18;4.35;;;23.70;1.00;;;;;;5093229;28;20557;-74
2023/09/27 09:23:35;;;;;;;5.22;4.38;;;23.60;1.00;;;;;;5093867;28;20226;-73
2023/09/27 09:26:05;;;;;;;7.95;4.38;;;23.80;1.00;;;;;;5093641;28;20215;-74
2023/09/27 09:28:31;;;;;;;6.85;4.53;;;24.50;1.00;;;;;;5093451;28;20237;-74
2023/09/27 09:30:57;;;;;;;4.78;4.38;;;25.20;1.00;;;;;;5093370;28;20176;-74
2023/09/27 09:33:28;;;;;;;5.95;4.28;;;25.40;1.00;;;;;;5093375;28;20160;-75
2023/09/27 09:35:55;;;;;;;5.13;4.63;;;26.10;60.20;;;;;;5093149;28;20180;-74
2023/09/27 09:38:30;;;;;;;4.07;3.67;;;27.30;1.00;;;;;;5093254;28;20171;-76
2023/09/27 09:41:00;;;;;;;3.55;3.25;;;28.00;99.90;;;;;;5092922;28;20175;-76
2023/09/27 09:43:37;;;;;;;3.47;3.20;;;27.50;1.00;;;;;;5093059;28;20172;-75
2023/09/27 09:46:06;;;;;;;5.82;2.95;;;27.40;65.70;;;;;;5092952;28;20207;-75
2023/09/27 09:48:34;;;;;;;4.05;3.15;;;27.40;4.10;;;;;;5093234;28;20164;-75
2023/09/27 09:51:06;;;;;;;4.70;3.17;;;27.10;99.90;;;;;;5093585;28;20232;-76
2023/09/27 09:53:38;;;;;;;5.38;3.35;;;27.20;1.00;;;;;;5094134;28;20198;-77
2023/09/27 09:56:06;;;;;;;5.40;3.40;;;27.40;1.00;;;;;;5093423;28;20272;-76
2023/09/27 09:58:46;;;;;;;3.40;2.88;;;27.50;47.20;;;;;;5092810;28;20528;-75
2023/09/27 10:01:18;;;;;;;3.08;2.88;;;27.10;99.90;;;;;;5092982;28;20325;-75
2023/09/27 10:03:47;;;;;;;4.07;3.10;;;26.80;1.00;;;;;;5093089;28;20237;-76
2023/09/27 10:06:18;;;;;;;4.80;3.20;;;26.90;1.00;;;;;;5093053;28;20206;-76
2023/09/27 10:08:45;;;;;;;3.75;3.00;;;27.10;99.90;;;;;;5092617;28;20661;-75
2023/09/27 10:11:11;;;;;;;5.55;3.00;;;27.50;1.00;;;;;;5093345;28;20175;-76
2023/09/27 10:13:40;;;;;;;3.92;2.95;;;28.30;99.90;;;;;;5092262;28;20168;-77
2023/09/27 10:16:08;;;;;;;3.47;2.97;;;29.00;1.00;;;;;;5093061;28;20251;-76
2023/09/27 10:18:38;;;;;;;3.60;3.30;;;29.40;1.00;;;;;;5092563;28;20184;-76
2023/09/27 10:21:05;;;;;;;3.22;3.00;;;29.50;1.00;;;;;;5092755;28;20227;-75
2023/09/27 10:23:45;;;;;;;4.97;2.80;;;29.00;1.00;;;;;;5092714;28;20172;-75
2023/09/27 10:26:17;;;;;;;6.38;2.80;;;28.10;1.00;;;;;;5092195;28;20211;-73
2023/09/27 10:29:07;;;;;;;3.08;2.78;;;27.00;14.80;;;;;;5092084;28;20639;-73
2023/09/27 10:31:36;;;;;;;8.57;3.25;;;26.40;1.00;;;;;;5092057;28;20255;-74
2023/09/27 10:34:02;;;;;;;3.50;2.70;;;26.10;1.00;;;;;;5092411;28;20172;-73
2023/09/27 10:36:29;;;;;;;3.33;2.90;;;25.60;1.00;;;;;;5092830;28;20627;-74
2023/09/27 10:39:00;;;;;;;2.83;2.53;;;25.50;1.00;;;;;;5092734;28;20168;-73
2023/09/27 10:41:32;;;;;;;5.72;2.95;;;25.00;1.00;;;;;;5092117;28;20160;-75
2023/09/27 10:43:59;;;;;;;5.95;2.80;;;25.10;1.00;;;;;;5092387;28;20167;-75
2023/09/27 10:46:25;;;;;;;3.15;2.85;;;25.80;1.00;;;;;;5091999;28;20195;-76
2023/09/27 10:48:55;;;;;;;3.15;2.50;;;26.40;99.90;;;;;;5091979;28;20172;-75
2023/09/27 10:51:26;;;;;;;4.93;2.58;;;26.60;1.00;;;;;;5091211;28;20241;-76
2023/09/27 10:53:52;;;;;;;4.28;2.45;;;26.50;1.00;;;;;;5092345;28;20176;-75
2023/09/27 10:56:17;;;;;;;4.75;2.75;;;26.50;99.90;;;;;;5092032;28;20250;-76
2023/09/27 10:58:45;;;;;;;4.80;2.70;;;26.30;99.90;;;;;;5092192;28;20255;-74
2023/09/27 11:01:11;;;;;;;5.60;3.03;;;26.10;99.90;;;;;;5092063;28;20199;-75
2023/09/27 11:03:37;;;;;;;3.38;3.08;;;26.50;1.00;;;;;;5092319;28;20160;-74
2023/09/27 11:06:11;;;;;;;3.05;2.70;;;26.20;99.90;;;;;;5092607;28;20234;-74
2023/09/27 11:08:37;;;;;;;3.40;3.08;;;26.30;1.00;;;;;;5091219;28;20259;-75
2023/09/27 11:11:06;;;;;;;3.85;2.78;;;26.30;99.90;;;;;;5092052;28;20267;-73
2023/09/27 11:13:32;;;;;;;3.05;2.80;;;27.00;1.00;;;;;;5091671;28;20186;-76
2023/09/27 11:16:12;;;;;;;3.00;2.80;;;27.10;1.00;;;;;;5092036;28;20160;-76
2023/09/27 11:18:46;;;;;;;3.55;3.20;;;27.30;99.90;;;;;;5091841;28;20275;-76
2023/09/27 11:21:13;;;;;;;3.40;2.97;;;27.90;1.00;;;;;;5092371;28;20699;-74
2023/09/27 11:23:58;;;;;;;5.40;3.28;;;28.00;1.00;;;;;;5091845;28;20189;-74
2023/09/27 11:26:31;;;;;;;3.70;2.80;;;27.80;1.00;;;;;;5091931;28;20269;-75
2023/09/27 11:29:04;;;;;;;4.18;2.88;;;27.60;99.90;;;;;;5091856;28;20647;-75
2023/09/27 11:31:39;;;;;;;4.28;2.72;;;27.90;22.00;;;;;;5091742;28;20202;-74
2023/09/27 11:34:19;;;;;;;2.85;2.65;;;27.70;1.00;;;;;;5091815;28;20540;-75
2023/09/27 11:36:46;;;;;;;4.75;3.05;;;27.60;99.90;;;;;;5091666;28;20168;-74
2023/09/27 11:39:18;;;;;;;4.88;3.13;;;27.10;62.00;;;;;;5095079;28;20508;-73
2023/09/27 11:41:45;;;;;;;3.03;2.83;;;26.90;99.90;;;;;;5094599;28;20695;-73
2023/09/27 11:44:23;;;;;;;5.18;2.88;;;27.20;1.00;;;;;;5095284;28;20164;-73
2023/09/27 11:46:49;;;;;;;8.10;3.53;;;27.40;45.40;;;;;;5095028;28;20222;-73
2023/09/27 11:49:16;;;;;;;4.22;3.00;;;27.10;76.70;;;;;;5095093;28;20179;-74
2023/09/27 11:51:43;;;;;;;3.72;2.78;;;27.00;99.90;;;;;;5095384;28;20275;-72
2023/09/27 11:54:09;;;;;;;4.82;3.17;;;27.20;1.00;;;;;;5094769;28;20182;-74
2023/09/27 11:56:38;;;;;;;3.85;3.30;;;27.40;1.00;;;;;;5095423;28;20203;-73
2023/09/27 11:59:04;;;;;;;4.65;3.20;;;27.60;99.90;;;;;;5095435;28;20183;-72
2023/09/27 12:01:31;;;;;;;3.38;3.08;;;27.00;99.90;;;;;;5095385;28;20634;-72
2023/09/27 12:03:57;;;;;;;4.85;3.53;;;26.70;1.00;;;;;;5095246;28;20183;-72
2023/09/27 12:06:24;;;;;;;4.35;3.28;;;26.60;1.00;;;;;;5095460;28;20215;-71
2023/09/27 12:08:50;;;;;;;4.40;2.70;;;26.30;1.00;;;;;;5094692;28;20626;-72
2023/09/27 12:11:16;;;;;;;4.32;3.50;;;26.20;1.00;;;;;;5094759;28;20180;-72
2023/09/27 12:13:41;;;;;;;17.40;4.65;;;26.50;99.90;;;;;;5094416;28;20330;-72
2023/09/27 12:16:07;;;;;;;5.32;3.10;;;26.60;47.80;;;;;;5093569;28;20172;-72
2023/09/27 12:18:32;;;;;;;4.38;3.28;;;26.50;99.90;;;;;;5094501;28;20223;-72
2023/09/27 12:20:59;;;;;;;4.28;3.47;;;26.30;99.90;;;;;;5094670;28;20709;-72
2023/09/27 12:23:24;;;;;;;8.30;3.30;;;26.20;1.00;;;;;;5093245;28;20580;-72
2023/09/27 12:25:50;;;;;;;5.82;3.42;;;25.90;1.00;;;;;;5094564;28;20215;-73
2023/09/27 12:28:16;;;;;;;4.35;3.25;;;25.80;1.00;;;;;;5095203;28;20172;-72
2023/09/27 12:30:42;;;;;;;3.42;3.13;;;25.60;1.00;;;;;;5094728;28;20180;-73
2023/09/27 12:33:08;;;;;;;4.03;3.25;;;25.50;1.00;;;;;;5094411;28;20233;-72
2023/09/27 12:35:33;;;;;;;3.30;3.10;;;25.50;1.00;;;;;;5094434;28;20218;-72
2023/09/27 12:38:03;;;;;;;4.85;3.25;;;25.40;99.90;;;;;;5093772;28;20616;-73
2023/09/27 12:40:32;;;;;;;3.67;3.25;;;25.60;1.00;;;;;;5094148;28;20172;-73
2023/09/27 12:42:57;;;;;;;4.40;3.38;;;25.70;99.90;;;;;;5094836;28;20176;-73
2023/09/27 12:45:23;;;;;;;4.65;3.50;;;25.80;1.00;;;;;;5092511;28;20210;-73